Time;durP1;ratioP1;P1;durP2;ratioP2;P2;SDS_P1;SDS_P2;PMS_P1;PMS_P2;Temp;Humidity;BMP_temperature;BMP_pressure;BME280_temperature;BME280_humidity;BME280_pressure;Samples;Min_cycle;Max_cycle;Signal;HPM_P1;HPM_P2
2023/02/17 00:00:19;;;;;;;43.10;32.75;;;6.70;99.90;;;;;;4986930;28;20267;-72
2023/02/17 00:02:48;;;;;;;43.53;33.00;;;6.60;99.90;;;;;;4988216;28;20725;-72
2023/02/17 00:05:16;;;;;;;42.88;31.02;;;6.50;99.90;;;;;;4990169;28;20221;-72
2023/02/17 00:07:44;;;;;;;40.40;30.77;;;6.40;99.90;;;;;;4987620;28;20247;-72
2023/02/17 00:10:11;;;;;;;38.90;30.98;;;6.30;99.90;;;;;;4985557;28;20224;-72
2023/02/17 00:12:38;;;;;;;42.38;31.98;;;6.30;99.90;;;;;;4988606;28;20303;-72
2023/02/17 00:15:06;;;;;;;37.60;28.95;;;6.30;99.90;;;;;;4995296;28;20300;-72
2023/02/17 00:17:33;;;;;;;39.95;31.45;;;6.30;99.90;;;;;;4991232;28;20294;-71
2023/02/17 00:20:00;;;;;;;41.40;32.28;;;6.30;99.90;;;;;;4985555;28;20304;-73
2023/02/17 00:22:27;;;;;;;42.75;33.33;;;6.30;99.90;;;;;;4986074;28;20307;-71
2023/02/17 00:24:56;;;;;;;43.40;33.45;;;6.30;99.90;;;;;;4988244;28;20295;-70
2023/02/17 00:27:23;;;;;;;44.70;33.38;;;6.30;99.90;;;;;;4994241;28;20201;-72
2023/02/17 00:29:50;;;;;;;43.65;32.53;;;6.30;99.90;;;;;;4988921;28;20662;-71
2023/02/17 00:32:17;;;;;;;46.55;35.10;;;6.30;99.90;;;;;;4989882;28;20284;-72
2023/02/17 00:34:44;;;;;;;49.67;37.13;;;6.30;99.90;;;;;;4986955;28;20301;-73
2023/02/17 00:37:11;;;;;;;47.08;35.28;;;6.30;99.90;;;;;;4986784;28;20201;-72
2023/02/17 00:39:38;;;;;;;48.60;36.45;;;6.20;99.90;;;;;;4988442;28;20811;-72
2023/02/17 00:42:06;;;;;;;46.38;37.40;;;6.20;99.90;;;;;;4989639;28;20304;-72
2023/02/17 00:44:33;;;;;;;50.10;36.88;;;6.20;99.90;;;;;;4990079;28;20723;-72
2023/02/17 00:47:00;;;;;;;44.20;35.53;;;6.10;99.90;;;;;;4987203;28;20215;-72
2023/02/17 00:49:27;;;;;;;45.67;35.03;;;6.10;99.90;;;;;;4987937;28;20304;-71
2023/02/17 00:51:55;;;;;;;45.88;34.38;;;6.00;99.90;;;;;;4989336;28;20284;-70
2023/02/17 00:54:22;;;;;;;45.38;32.75;;;6.00;99.90;;;;;;4990045;28;20228;-72
2023/02/17 00:56:49;;;;;;;41.20;32.15;;;6.00;99.90;;;;;;4984422;28;20297;-71
2023/02/17 00:59:17;;;;;;;41.25;32.75;;;6.00;99.90;;;;;;4985908;28;20228;-71
2023/02/17 01:01:44;;;;;;;43.00;34.40;;;5.90;99.90;;;;;;4988942;28;20304;-73
2023/02/17 01:04:12;;;;;;;41.17;32.85;;;5.90;99.90;;;;;;4988638;28;20295;-72
2023/02/17 01:06:39;;;;;;;42.28;33.38;;;5.80;99.90;;;;;;4995952;28;20287;-72
2023/02/17 01:09:08;;;;;;;39.67;31.33;;;5.70;99.90;;;;;;4988032;28;20468;-71
2023/02/17 01:11:36;;;;;;;48.97;35.85;;;5.70;99.90;;;;;;4990458;28;20283;-72
2023/02/17 01:14:06;;;;;;;42.05;33.58;;;5.70;99.90;;;;;;4989433;28;20307;-71
2023/02/17 01:16:37;;;;;;;45.83;34.33;;;5.60;99.90;;;;;;4992750;28;20199;-71
2023/02/17 01:19:08;;;;;;;43.40;32.90;;;5.60;99.90;;;;;;4990526;28;20655;-71
2023/02/17 01:21:36;;;;;;;43.10;33.35;;;5.60;99.90;;;;;;4990272;28;20307;-71
2023/02/17 01:24:04;;;;;;;41.47;32.10;;;5.60;99.90;;;;;;4987093;28;20259;-72
2023/02/17 01:26:34;;;;;;;38.47;29.60;;;5.60;99.90;;;;;;4990368;28;20621;-72
2023/02/17 01:29:01;;;;;;;41.72;32.15;;;5.60;99.90;;;;;;4977192;28;20225;-72
2023/02/17 01:31:29;;;;;;;44.63;35.10;;;5.70;99.90;;;;;;4991146;28;20293;-72
2023/02/17 01:33:59;;;;;;;42.78;31.88;;;5.70;99.90;;;;;;4994388;28;20298;-71
2023/02/17 01:36:26;;;;;;;42.35;32.85;;;5.70;99.90;;;;;;4987943;28;20654;-73
2023/02/17 01:38:53;;;;;;;41.78;31.52;;;5.70;99.90;;;;;;4987475;28;20223;-72
2023/02/17 01:41:25;;;;;;;44.22;32.42;;;5.70;99.90;;;;;;4989275;28;20291;-72
2023/02/17 01:44:13;;;;;;;42.90;31.80;;;5.70;99.90;;;;;;4988630;28;20220;-72
2023/02/17 01:46:42;;;;;;;44.65;33.75;;;5.70;99.90;;;;;;4991790;28;20228;-72
2023/02/17 01:49:30;;;;;;;45.22;34.05;;;5.70;99.90;;;;;;4993558;28;20300;-72
2023/02/17 01:52:04;;;;;;;44.47;33.30;;;5.70;99.90;;;;;;4992277;28;20198;-72
2023/02/17 01:54:36;;;;;;;50.00;34.95;;;5.70;99.90;;;;;;4986136;28;20244;-72
2023/02/17 01:57:03;;;;;;;48.10;33.67;;;5.70;99.90;;;;;;4990700;28;20228;-71
2023/02/17 01:59:31;;;;;;;47.05;34.30;;;5.70;99.90;;;;;;4994613;28;20311;-71
2023/02/17 02:02:02;;;;;;;47.55;36.83;;;5.70;99.90;;;;;;4990505;28;20260;-71
2023/02/17 02:04:35;;;;;;;43.33;34.47;;;5.70;99.90;;;;;;4986932;28;20249;-71
2023/02/17 02:07:03;;;;;;;46.42;34.97;;;5.70;99.90;;;;;;4991048;28;20308;-71
2023/02/17 02:09:36;;;;;;;48.00;35.60;;;5.70;99.90;;;;;;4989312;28;20232;-71
2023/02/17 02:12:15;;;;;;;48.97;35.35;;;5.60;99.90;;;;;;4986504;28;20203;-71
2023/02/17 02:14:42;;;;;;;49.15;37.22;;;5.60;99.90;;;;;;4989902;28;20303;-71
2023/02/17 02:17:14;;;;;;;49.78;37.47;;;5.60;99.90;;;;;;4986601;28;20283;-71
2023/02/17 02:23:07;;;;;;;49.38;37.03;;;5.60;99.90;;;;;;5062792;28;20631;-72
2023/02/17 02:26:03;;;;;;;47.75;36.80;;;5.50;99.90;;;;;;5028796;28;20299;-73
2023/02/17 02:28:43;;;;;;;45.97;36.83;;;5.50;99.90;;;;;;5030511;28;20231;-73
2023/02/17 02:31:27;;;;;;;48.60;36.45;;;5.50;99.90;;;;;;5016951;28;20227;-72
2023/02/17 02:33:59;;;;;;;47.55;36.25;;;5.50;99.90;;;;;;5021321;28;20235;-72
2023/02/17 02:36:31;;;;;;;45.58;36.58;;;5.40;99.90;;;;;;5027080;28;20231;-72
2023/02/17 02:39:01;;;;;;;44.83;36.20;;;5.40;99.90;;;;;;5024440;28;20227;-72
2023/02/17 02:41:33;;;;;;;45.92;35.33;;;5.30;99.90;;;;;;5025413;28;20298;-73
2023/02/17 02:44:02;;;;;;;48.78;36.42;;;5.30;99.90;;;;;;5014993;28;20249;-72
2023/02/17 02:46:29;;;;;;;49.03;37.03;;;5.30;99.90;;;;;;4998567;28;20205;-73
2023/02/17 02:48:58;;;;;;;50.35;37.38;;;5.30;99.90;;;;;;5006175;28;20278;-73
2023/02/17 02:51:31;;;;;;;49.67;37.03;;;5.30;99.90;;;;;;5006628;28;20200;-73
2023/02/17 02:54:32;;;;;;;49.85;36.35;;;5.20;99.90;;;;;;5000207;28;20623;-73
2023/02/17 02:57:09;;;;;;;52.15;39.25;;;5.30;99.90;;;;;;5011466;28;20202;-73
2023/02/17 02:59:47;;;;;;;46.40;36.47;;;5.30;99.90;;;;;;5001978;28;20285;-73
2023/02/17 03:02:22;;;;;;;52.72;39.78;;;5.30;99.90;;;;;;5005777;28;20263;-73
2023/02/17 03:04:56;;;;;;;51.03;38.75;;;5.30;99.90;;;;;;5003767;28;20242;-73
2023/02/17 03:07:29;;;;;;;48.13;37.95;;;5.30;99.90;;;;;;5009106;28;20246;-73
2023/02/17 03:09:58;;;;;;;48.00;37.28;;;5.30;99.90;;;;;;4998910;28;20259;-73
2023/02/17 03:12:27;;;;;;;51.33;39.45;;;5.30;99.90;;;;;;5007798;28;20594;-73
2023/02/17 03:14:58;;;;;;;53.55;41.20;;;5.30;99.90;;;;;;5022612;28;20272;-72
2023/02/17 03:17:25;;;;;;;48.33;37.53;;;5.20;99.90;;;;;;5012281;28;20667;-73
2023/02/17 03:19:53;;;;;;;47.20;37.05;;;5.20;99.90;;;;;;5017693;28;20255;-73
2023/02/17 03:22:23;;;;;;;48.90;36.80;;;5.10;99.90;;;;;;5023679;28;20303;-73
2023/02/17 03:24:50;;;;;;;48.72;38.50;;;5.10;99.90;;;;;;5025929;28;20302;-73
2023/02/17 03:27:17;;;;;;;50.00;37.42;;;5.00;99.90;;;;;;5024504;28;20215;-73
2023/02/17 03:29:44;;;;;;;46.38;35.80;;;4.90;99.90;;;;;;5018672;28;20317;-73
2023/02/17 03:32:11;;;;;;;50.67;39.35;;;4.90;99.90;;;;;;5045429;22;20310;-66
2023/02/17 03:34:38;;;;;;;50.10;39.17;;;4.90;99.90;;;;;;5008945;28;20282;-67
2023/02/17 03:37:06;;;;;;;51.40;39.97;;;4.90;99.90;;;;;;5012631;28;20220;-67
2023/02/17 03:39:33;;;;;;;50.10;38.03;;;4.80;99.90;;;;;;5010878;28;20809;-67
2023/02/17 03:42:00;;;;;;;51.38;39.15;;;4.90;99.90;;;;;;5004665;28;20315;-67
2023/02/17 03:44:27;;;;;;;48.38;38.10;;;4.80;99.90;;;;;;5001987;28;20248;-66
2023/02/17 03:46:54;;;;;;;46.33;37.53;;;4.90;99.90;;;;;;5010574;28;20224;-67
2023/02/17 03:49:21;;;;;;;48.95;36.67;;;4.90;99.90;;;;;;5015049;28;20239;-67
2023/02/17 03:51:48;;;;;;;47.53;37.55;;;4.90;99.90;;;;;;5012925;28;20256;-66
2023/02/17 03:54:16;;;;;;;44.33;35.63;;;5.00;99.90;;;;;;5011497;28;20247;-67
2023/02/17 03:56:43;;;;;;;47.75;37.30;;;5.00;99.90;;;;;;5012393;28;20235;-67
2023/02/17 03:59:10;;;;;;;48.33;36.92;;;5.00;99.90;;;;;;5008725;28;20248;-67
2023/02/17 04:01:37;;;;;;;49.05;37.15;;;5.00;99.90;;;;;;5009292;28;20260;-66
2023/02/17 04:04:04;;;;;;;49.13;37.08;;;5.00;99.90;;;;;;5005023;28;20296;-67
2023/02/17 04:06:31;;;;;;;48.90;36.80;;;5.00;99.90;;;;;;5006203;28;20232;-67
2023/02/17 04:08:58;;;;;;;46.47;35.03;;;5.10;99.90;;;;;;5011266;28;20239;-67
2023/02/17 04:11:26;;;;;;;48.03;35.80;;;5.10;99.90;;;;;;5009958;28;21201;-67
2023/02/17 04:13:53;;;;;;;43.92;34.53;;;5.10;99.90;;;;;;5007756;28;20314;-67
2023/02/17 04:16:20;;;;;;;43.00;33.58;;;5.10;99.90;;;;;;5007224;28;20228;-67
2023/02/17 04:18:47;;;;;;;43.40;34.75;;;5.10;99.90;;;;;;5011910;28;20312;-67
2023/02/17 04:21:14;;;;;;;46.35;36.17;;;5.10;99.90;;;;;;5012146;28;20255;-67
2023/02/17 04:23:41;;;;;;;43.67;34.13;;;5.00;99.90;;;;;;5010807;28;20243;-68
2023/02/17 04:26:08;;;;;;;39.45;32.08;;;5.00;99.90;;;;;;5010769;28;20227;-67
2023/02/17 04:28:38;;;;;;;40.78;31.77;;;5.00;99.90;;;;;;5006693;28;20626;-67
2023/02/17 04:31:05;;;;;;;41.83;31.83;;;5.00;99.90;;;;;;5010358;28;20232;-66
2023/02/17 04:33:33;;;;;;;45.60;33.45;;;4.90;99.90;;;;;;5009570;28;20242;-67
2023/02/17 04:36:00;;;;;;;45.20;33.17;;;4.90;99.90;;;;;;5006694;28;20279;-66
2023/02/17 04:38:28;;;;;;;41.05;31.80;;;4.90;99.90;;;;;;5011770;28;20286;-67
2023/02/17 04:40:55;;;;;;;46.92;36.08;;;4.90;99.90;;;;;;5012344;28;20236;-67
2023/02/17 04:43:22;;;;;;;47.83;35.15;;;4.90;99.90;;;;;;5009531;28;20228;-67
2023/02/17 04:45:51;;;;;;;43.75;34.75;;;4.90;99.90;;;;;;5009098;28;20286;-67
2023/02/17 04:48:18;;;;;;;46.33;33.65;;;4.80;99.90;;;;;;5010173;28;20659;-66
2023/02/17 04:50:45;;;;;;;46.45;35.70;;;4.80;99.90;;;;;;5010999;28;20287;-67
2023/02/17 04:53:13;;;;;;;43.00;33.47;;;4.80;99.90;;;;;;5004528;28;20296;-67
2023/02/17 04:55:41;;;;;;;46.65;36.00;;;4.80;99.90;;;;;;5011132;28;20580;-68
2023/02/17 04:58:08;;;;;;;42.67;32.25;;;4.70;99.90;;;;;;5010624;28;20294;-67
2023/02/17 05:00:35;;;;;;;42.13;33.30;;;4.70;99.90;;;;;;5010578;28;20227;-67
2023/02/17 05:03:04;;;;;;;45.70;34.30;;;4.60;99.90;;;;;;5007036;28;20239;-67
2023/02/17 05:05:31;;;;;;;44.88;35.63;;;4.60;99.90;;;;;;5009316;28;20296;-66
2023/02/17 05:07:58;;;;;;;45.80;34.88;;;4.50;99.90;;;;;;5007743;28;20291;-66
2023/02/17 05:10:25;;;;;;;51.28;37.50;;;4.50;99.90;;;;;;5006631;28;20200;-67
2023/02/17 05:12:52;;;;;;;43.40;32.88;;;4.50;99.90;;;;;;5008601;28;20248;-67
2023/02/17 05:15:20;;;;;;;46.78;33.47;;;4.50;99.90;;;;;;5009047;28;20640;-67
2023/02/17 05:17:47;;;;;;;41.25;31.38;;;4.50;99.90;;;;;;5008547;28;20227;-67
2023/02/17 05:20:16;;;;;;;40.95;33.25;;;4.50;99.90;;;;;;5006075;28;20660;-67
2023/02/17 05:22:43;;;;;;;45.08;33.80;;;4.40;99.90;;;;;;5005486;28;20316;-67
2023/02/17 05:25:10;;;;;;;44.22;34.35;;;4.40;99.90;;;;;;5009348;28;20264;-66
2023/02/17 05:27:37;;;;;;;43.10;33.17;;;4.40;99.90;;;;;;5010208;28;20269;-67
2023/02/17 05:30:04;;;;;;;36.60;29.05;;;4.30;99.90;;;;;;5007676;28;20303;-67
2023/02/17 05:32:31;;;;;;;37.20;28.30;;;4.30;99.90;;;;;;5008299;28;20228;-67
2023/02/17 05:34:58;;;;;;;38.13;28.58;;;4.30;99.90;;;;;;5010161;28;20250;-67
2023/02/17 05:37:26;;;;;;;37.10;28.20;;;4.30;99.90;;;;;;5009065;28;20283;-67
2023/02/17 05:39:53;;;;;;;35.10;28.88;;;4.20;99.90;;;;;;5007172;28;20316;-68
2023/02/17 05:42:20;;;;;;;37.38;28.38;;;4.20;99.90;;;;;;5009262;28;20311;-67
2023/02/17 05:44:47;;;;;;;38.55;30.40;;;4.20;99.90;;;;;;5009568;28;20251;-65
2023/02/17 05:47:14;;;;;;;40.15;30.58;;;4.20;99.90;;;;;;5007583;28;20403;-73
2023/02/17 05:49:41;;;;;;;36.55;29.08;;;4.20;99.90;;;;;;5005279;28;20251;-67
2023/02/17 05:52:08;;;;;;;37.85;29.77;;;4.20;99.90;;;;;;5009404;28;20255;-67
2023/02/17 05:54:36;;;;;;;39.00;30.13;;;4.20;99.90;;;;;;5009419;28;20806;-67
2023/02/17 05:57:03;;;;;;;35.03;28.45;;;4.20;99.90;;;;;;5007560;28;20231;-66
2023/02/17 05:59:30;;;;;;;37.47;29.55;;;4.20;99.90;;;;;;5011103;28;20303;-67
2023/02/17 06:01:57;;;;;;;34.63;27.63;;;4.30;99.90;;;;;;5009757;28;20310;-67
2023/02/17 06:04:24;;;;;;;38.53;28.90;;;4.30;99.90;;;;;;5007666;28;20247;-65
2023/02/17 06:06:51;;;;;;;38.72;30.15;;;4.30;99.90;;;;;;5006643;28;20232;-66
2023/02/17 06:09:18;;;;;;;38.10;29.42;;;4.30;99.90;;;;;;5006403;28;20216;-67
2023/02/17 06:11:46;;;;;;;38.15;29.67;;;4.30;99.90;;;;;;5007998;28;20251;-67
2023/02/17 06:14:13;;;;;;;46.88;34.65;;;4.30;99.90;;;;;;5007798;28;20299;-67
2023/02/17 06:16:40;;;;;;;42.83;32.30;;;4.30;99.90;;;;;;5004582;28;20236;-67
2023/02/17 06:19:07;;;;;;;43.13;33.88;;;4.30;99.90;;;;;;5006931;28;20220;-67
2023/02/17 06:21:34;;;;;;;40.30;31.25;;;4.40;99.90;;;;;;5011496;28;20315;-67
2023/02/17 06:24:01;;;;;;;40.20;31.38;;;4.40;99.90;;;;;;5008653;28;20252;-65
2023/02/17 06:26:28;;;;;;;37.63;31.30;;;4.40;99.90;;;;;;5009858;28;20286;-67
2023/02/17 06:28:56;;;;;;;40.17;30.45;;;4.30;99.90;;;;;;5008244;28;20694;-67
2023/02/17 06:31:23;;;;;;;41.25;31.27;;;4.30;99.90;;;;;;5008139;28;20285;-67
2023/02/17 06:33:50;;;;;;;40.28;31.80;;;4.30;99.90;;;;;;5010567;28;20656;-68
2023/02/17 06:36:16;;;;;;;46.70;34.50;;;4.30;99.90;;;;;;5012204;28;20311;-68
2023/02/17 06:38:43;;;;;;;41.40;32.10;;;4.30;99.90;;;;;;5009965;28;20252;-67
2023/02/17 06:41:10;;;;;;;37.00;29.95;;;4.30;99.90;;;;;;5009929;28;20303;-66
2023/02/17 06:43:37;;;;;;;42.47;32.17;;;4.30;99.90;;;;;;5006172;28;20335;-68
2023/02/17 06:46:05;;;;;;;37.97;28.63;;;4.40;99.90;;;;;;5010095;28;20239;-68
2023/02/17 06:48:32;;;;;;;35.42;27.48;;;4.40;99.90;;;;;;5009303;28;20663;-67
2023/02/17 06:50:59;;;;;;;33.72;27.65;;;4.50;99.90;;;;;;5009000;28;20251;-67
2023/02/17 06:53:26;;;;;;;35.65;27.63;;;4.50;99.90;;;;;;5002971;28;20251;-67
2023/02/17 06:55:53;;;;;;;34.92;27.05;;;4.60;99.90;;;;;;5009517;28;20283;-67
2023/02/17 06:58:20;;;;;;;33.47;27.23;;;4.70;99.90;;;;;;5009093;28;20252;-67
2023/02/17 07:00:47;;;;;;;33.95;27.45;;;4.70;99.90;;;;;;5008416;28;20671;-67
2023/02/17 07:03:15;;;;;;;35.50;26.75;;;4.80;99.90;;;;;;5009162;28;20244;-67
2023/02/17 07:05:42;;;;;;;36.00;28.00;;;4.90;99.90;;;;;;5008990;28;20238;-68
2023/02/17 07:08:09;;;;;;;36.67;27.98;;;4.90;99.90;;;;;;5003792;28;20280;-69
2023/02/17 07:10:37;;;;;;;31.30;25.02;;;5.00;99.90;;;;;;5005971;28;20236;-69
2023/02/17 07:13:04;;;;;;;32.53;26.38;;;5.00;99.90;;;;;;5000232;28;20220;-69
2023/02/17 07:15:31;;;;;;;33.78;27.20;;;5.00;99.90;;;;;;5004121;28;20262;-68
2023/02/17 07:17:58;;;;;;;31.05;25.02;;;5.10;99.90;;;;;;5004194;28;20304;-68
2023/02/17 07:20:26;;;;;;;34.30;27.30;;;5.10;99.90;;;;;;5002234;28;20231;-68
2023/02/17 07:22:53;;;;;;;36.80;28.27;;;5.10;99.90;;;;;;5003171;28;20299;-67
2023/02/17 07:25:20;;;;;;;32.42;26.17;;;5.10;99.90;;;;;;4998036;28;20644;-68
2023/02/17 07:27:47;;;;;;;28.88;23.92;;;5.10;99.90;;;;;;5005400;28;20706;-68
2023/02/17 07:30:14;;;;;;;33.42;26.08;;;5.10;99.90;;;;;;5007285;28;20220;-68
2023/02/17 07:32:41;;;;;;;33.97;26.92;;;5.20;99.90;;;;;;5003827;28;20223;-68
2023/02/17 07:35:09;;;;;;;31.70;24.05;;;5.20;99.90;;;;;;5006300;28;20215;-69
2023/02/17 07:37:37;;;;;;;30.92;25.10;;;5.20;99.90;;;;;;5005087;28;21974;-69
2023/02/17 07:40:06;;;;;;;30.77;25.23;;;5.30;99.90;;;;;;5003106;28;20219;-69
2023/02/17 07:42:33;;;;;;;31.35;25.08;;;5.30;99.90;;;;;;5005915;28;20299;-68
2023/02/17 07:44:59;;;;;;;34.83;27.33;;;5.40;99.90;;;;;;5006355;28;20243;-68
2023/02/17 07:47:26;;;;;;;30.98;24.92;;;5.50;99.90;;;;;;5004705;28;20747;-68
2023/02/17 07:49:53;;;;;;;33.80;26.67;;;5.50;99.90;;;;;;5004049;28;20240;-68
2023/02/17 07:52:20;;;;;;;36.08;27.73;;;5.60;99.90;;;;;;5005041;28;20303;-68
2023/02/17 07:54:48;;;;;;;31.77;26.10;;;5.70;99.90;;;;;;5004660;28;20258;-69
2023/02/17 07:57:15;;;;;;;37.40;27.85;;;5.80;99.90;;;;;;5005156;28;20248;-70
2023/02/17 07:59:42;;;;;;;34.67;27.05;;;5.90;99.90;;;;;;5006909;28;20311;-70
2023/02/17 08:02:11;;;;;;;33.75;28.15;;;6.00;99.90;;;;;;5004974;28;20275;-69
2023/02/17 08:04:38;;;;;;;38.08;29.60;;;6.10;99.90;;;;;;5004468;28;20254;-70
2023/02/17 08:07:05;;;;;;;37.20;29.88;;;6.20;99.90;;;;;;5003653;28;20951;-71
2023/02/17 08:15:05;;;;;;;43.95;33.85;;;6.60;99.90;;;;;;5002294;28;20282;-69
2023/02/17 08:17:33;;;;;;;40.47;32.65;;;7.10;99.90;;;;;;5001491;28;20236;-68
2023/02/17 08:19:59;;;;;;;42.08;33.75;;;7.40;99.90;;;;;;5005492;28;20719;-69
2023/02/17 08:22:26;;;;;;;40.92;32.80;;;7.80;99.90;;;;;;5005321;28;20255;-70
2023/02/17 08:24:53;;;;;;;44.65;33.85;;;8.10;99.90;;;;;;5005402;28;20303;-70
2023/02/17 08:27:22;;;;;;;37.55;30.75;;;8.20;99.90;;;;;;5002499;28;20639;-71
2023/02/17 08:29:48;;;;;;;38.67;31.85;;;8.10;99.90;;;;;;5005944;28;20297;-70
2023/02/17 08:32:16;;;;;;;38.72;30.95;;;8.20;99.90;;;;;;5006532;28;20766;-70
2023/02/17 08:34:44;;;;;;;39.25;29.08;;;8.30;99.90;;;;;;5002585;28;20220;-70
2023/02/17 08:37:11;;;;;;;38.03;27.20;;;8.80;99.90;;;;;;5004203;28;20193;-71
2023/02/17 08:39:38;;;;;;;37.05;28.90;;;9.70;99.90;;;;;;5005676;28;20236;-71
2023/02/17 08:42:06;;;;;;;39.03;29.50;;;10.30;99.90;;;;;;5006101;28;20255;-71
2023/02/17 08:44:36;;;;;;;39.05;31.88;;;10.70;99.90;;;;;;4999694;28;20232;-75
2023/02/17 08:47:05;;;;;;;34.97;29.08;;;11.20;99.90;;;;;;5003781;28;20211;-71
2023/02/17 08:49:32;;;;;;;41.75;30.92;;;11.60;99.90;;;;;;5004872;28;20219;-71
2023/02/17 08:51:59;;;;;;;34.60;28.30;;;11.70;99.90;;;;;;5003579;28;20703;-71
2023/02/17 08:54:26;;;;;;;37.00;28.88;;;12.10;99.90;;;;;;5004482;28;20251;-73
2023/02/17 08:56:53;;;;;;;36.55;29.70;;;12.40;99.90;;;;;;5005278;28;20196;-73
2023/02/17 08:59:20;;;;;;;32.42;25.40;;;12.80;99.90;;;;;;5004351;28;20239;-72
2023/02/17 09:01:48;;;;;;;28.27;24.52;;;13.40;99.90;;;;;;4996569;28;20247;-71
2023/02/17 09:04:15;;;;;;;31.48;24.63;;;13.90;99.90;;;;;;5000839;28;20738;-73
2023/02/17 09:06:44;;;;;;;34.83;28.55;;;14.30;99.90;;;;;;5006360;28;20718;-72
2023/02/17 09:09:14;;;;;;;35.80;29.15;;;13.90;99.90;;;;;;5004093;28;20244;-72
2023/02/17 09:11:41;;;;;;;34.33;27.60;;;13.70;99.90;;;;;;5003996;28;20334;-72
2023/02/17 09:14:08;;;;;;;33.08;27.17;;;13.60;99.90;;;;;;5004947;28;20247;-71
2023/02/17 09:16:36;;;;;;;32.58;27.98;;;13.50;99.90;;;;;;5003182;28;20971;-71
2023/02/17 09:19:04;;;;;;;31.67;25.65;;;13.50;99.90;;;;;;5001762;28;20244;-72
2023/02/17 09:21:32;;;;;;;36.28;27.23;;;13.90;99.90;;;;;;5006320;28;20298;-72
2023/02/17 09:23:58;;;;;;;34.33;27.75;;;13.90;99.90;;;;;;5001959;28;20319;-72
2023/02/17 09:26:26;;;;;;;34.92;27.60;;;13.30;99.90;;;;;;5001152;28;20644;-71
2023/02/17 09:28:53;;;;;;;35.13;27.40;;;13.10;99.90;;;;;;5000935;28;20244;-74
2023/02/17 09:31:21;;;;;;;38.03;29.00;;;13.20;99.90;;;;;;5007352;28;20251;-74
2023/02/17 09:33:49;;;;;;;36.67;29.02;;;13.40;99.90;;;;;;5011438;28;20244;-72
2023/02/17 09:36:21;;;;;;;35.42;28.58;;;13.80;99.90;;;;;;5002098;28;20254;-72
2023/02/17 09:38:48;;;;;;;34.10;27.35;;;14.10;99.90;;;;;;5002802;28;20443;-72
2023/02/17 09:41:18;;;;;;;32.63;26.38;;;14.40;99.90;;;;;;5002750;28;20266;-72
2023/02/17 09:43:45;;;;;;;30.70;26.35;;;14.50;99.90;;;;;;4998484;28;20332;-75
2023/02/17 09:46:17;;;;;;;31.60;26.05;;;14.40;99.90;;;;;;5002593;28;20216;-71
2023/02/17 09:48:46;;;;;;;30.33;24.77;;;14.40;99.90;;;;;;4999717;28;20667;-72
2023/02/17 09:51:22;;;;;;;27.70;23.40;;;14.40;99.90;;;;;;4999588;28;20770;-72
2023/02/17 09:53:55;;;;;;;28.67;22.92;;;14.40;99.90;;;;;;4999578;28;20299;-73
2023/02/17 09:56:26;;;;;;;29.90;23.58;;;14.90;99.90;;;;;;5006913;28;20201;-72
2023/02/17 09:58:57;;;;;;;27.60;22.23;;;15.20;99.90;;;;;;5006562;28;20244;-71
2023/02/17 10:01:28;;;;;;;30.25;24.27;;;15.40;99.90;;;;;;5005283;28;20243;-71
2023/02/17 10:04:02;;;;;;;29.42;24.70;;;15.50;99.90;;;;;;5005218;28;20255;-73
2023/02/17 10:06:35;;;;;;;30.60;23.98;;;15.40;99.90;;;;;;5004204;28;20239;-72
2023/02/17 10:09:07;;;;;;;27.15;22.95;;;15.30;99.90;;;;;;5005820;28;20251;-72
2023/02/17 10:11:38;;;;;;;27.55;22.48;;;15.60;99.90;;;;;;5001785;28;20242;-72
2023/02/17 10:14:10;;;;;;;26.75;22.55;;;15.20;99.90;;;;;;5003495;28;20243;-70
2023/02/17 10:16:43;;;;;;;26.10;21.42;;;14.60;99.90;;;;;;5002164;28;20287;-72
2023/02/17 10:19:15;;;;;;;25.60;21.38;;;14.40;99.90;;;;;;5001304;28;20295;-72
2023/02/17 10:21:49;;;;;;;25.80;20.02;;;14.10;99.90;;;;;;4999755;28;20305;-71
2023/02/17 10:24:16;;;;;;;25.20;22.05;;;13.80;99.90;;;;;;4996395;28;20675;-71
2023/02/17 10:27:00;;;;;;;28.50;21.38;;;13.70;99.90;;;;;;4999723;28;20291;-73
2023/02/17 10:29:37;;;;;;;27.13;21.02;;;13.70;99.90;;;;;;4997623;28;21272;-72
2023/02/17 10:32:19;;;;;;;26.50;20.77;;;13.90;99.90;;;;;;4990751;28;20315;-70
2023/02/17 10:35:00;;;;;;;24.60;19.55;;;14.20;99.90;;;;;;4996682;28;20247;-73
2023/02/17 10:37:39;;;;;;;27.77;20.15;;;14.30;99.90;;;;;;4995983;28;20327;-72
2023/02/17 10:40:20;;;;;;;28.58;21.35;;;14.50;99.90;;;;;;5002371;28;20302;-71
2023/02/17 10:42:49;;;;;;;25.70;20.42;;;14.70;99.90;;;;;;5000919;28;20230;-71
2023/02/17 10:45:25;;;;;;;25.35;21.67;;;14.70;99.90;;;;;;5007595;28;20307;-71
2023/02/17 10:47:56;;;;;;;28.65;22.58;;;14.80;99.90;;;;;;5004471;28;20203;-72
2023/02/17 10:50:25;;;;;;;25.98;21.00;;;14.60;99.90;;;;;;5010673;28;20244;-73
2023/02/17 10:52:55;;;;;;;25.23;20.38;;;14.50;99.90;;;;;;5009246;28;20230;-72
2023/02/17 10:55:30;;;;;;;28.38;22.15;;;14.40;99.90;;;;;;5009485;28;20414;-72
2023/02/17 10:58:04;;;;;;;29.92;23.10;;;14.40;99.90;;;;;;5007850;28;20278;-71
2023/02/17 11:00:31;;;;;;;27.10;23.00;;;14.60;99.90;;;;;;5005860;28;20291;-72
2023/02/17 11:02:58;;;;;;;30.80;22.65;;;14.70;99.90;;;;;;5005629;28;20311;-72
2023/02/17 11:05:27;;;;;;;28.85;22.48;;;14.50;99.90;;;;;;5007425;28;20220;-72
2023/02/17 11:08:02;;;;;;;31.50;23.77;;;14.40;99.90;;;;;;5006625;28;20207;-71
2023/02/17 11:10:32;;;;;;;26.50;22.58;;;14.10;99.90;;;;;;5001957;28;20200;-71
2023/02/17 11:13:01;;;;;;;30.10;23.45;;;13.80;99.90;;;;;;5000256;28;20630;-70
2023/02/17 11:15:31;;;;;;;30.90;23.98;;;13.90;99.90;;;;;;5007980;28;20216;-70
2023/02/17 11:18:01;;;;;;;27.00;22.80;;;13.60;99.90;;;;;;5006117;28;20224;-70
2023/02/17 11:20:32;;;;;;;25.88;20.65;;;13.70;99.90;;;;;;5004451;28;20287;-70
2023/02/17 11:23:20;;;;;;;27.80;22.02;;;14.00;99.90;;;;;;5001367;28;20217;-70
2023/02/17 11:26:00;;;;;;;33.65;25.60;;;14.20;99.90;;;;;;4994779;28;20291;-71
2023/02/17 11:28:28;;;;;;;25.92;21.38;;;14.20;99.90;;;;;;4995351;28;20227;-69
2023/02/17 11:30:57;;;;;;;28.80;22.92;;;14.30;99.90;;;;;;5001294;28;20243;-71
2023/02/17 11:33:30;;;;;;;30.88;23.55;;;14.30;99.90;;;;;;5002941;28;20294;-70
2023/02/17 11:35:58;;;;;;;28.95;22.85;;;14.10;99.90;;;;;;5003775;28;20228;-69
2023/02/17 11:38:28;;;;;;;32.35;23.88;;;14.00;99.90;;;;;;5007153;28;20243;-70
2023/02/17 11:40:58;;;;;;;28.73;23.45;;;13.90;99.90;;;;;;5002774;28;20287;-71
2023/02/17 11:43:27;;;;;;;30.75;23.73;;;14.40;99.90;;;;;;5006525;28;20307;-71
2023/02/17 11:46:21;;;;;;;28.92;23.55;;;14.50;99.90;;;;;;5005957;28;20216;-70
2023/02/17 11:49:26;;;;;;;29.58;23.67;;;14.70;99.90;;;;;;5004296;28;20274;-70
2023/02/17 11:52:01;;;;;;;28.05;22.52;;;15.10;99.90;;;;;;5003796;28;20307;-70
2023/02/17 11:54:34;;;;;;;23.85;20.05;;;15.30;99.90;;;;;;5006188;28;20310;-69
2023/02/17 11:57:15;;;;;;;26.38;19.98;;;15.20;99.90;;;;;;5006318;28;20228;-71
2023/02/17 11:59:56;;;;;;;24.45;19.90;;;15.20;98.20;;;;;;5001872;28;20306;-70
2023/02/17 12:02:37;;;;;;;24.77;20.92;;;15.20;98.60;;;;;;5000475;28;20224;-70
2023/02/17 12:05:17;;;;;;;30.20;24.77;;;15.50;99.60;;;;;;5007123;28;20320;-70
2023/02/17 12:07:55;;;;;;;29.27;23.75;;;15.70;99.60;;;;;;5004846;28;20307;-71
2023/02/17 12:10:37;;;;;;;28.05;22.58;;;15.50;99.10;;;;;;5006094;28;20650;-70
2023/02/17 12:13:21;;;;;;;33.35;23.33;;;15.60;99.90;;;;;;5003145;28;20763;-70
2023/02/17 12:15:59;;;;;;;29.60;23.70;;;15.90;98.10;;;;;;5002959;28;20196;-70
2023/02/17 12:18:40;;;;;;;32.40;21.63;;;15.50;98.40;;;;;;5008255;28;20308;-69
2023/02/17 12:21:12;;;;;;;29.23;22.70;;;15.60;98.30;;;;;;5005255;28;20297;-69
2023/02/17 12:24:04;;;;;;;26.02;21.23;;;15.60;98.40;;;;;;5006565;28;20307;-71
2023/02/17 12:26:39;;;;;;;23.77;19.50;;;15.30;97.50;;;;;;5007804;28;20200;-70
2023/02/17 12:29:29;;;;;;;25.85;20.23;;;15.00;98.50;;;;;;5010735;28;20235;-70
2023/02/17 12:32:18;;;;;;;27.17;21.23;;;14.70;98.10;;;;;;5005653;28;20307;-71
2023/02/17 12:34:51;;;;;;;27.27;22.15;;;14.50;99.10;;;;;;5007812;28;20299;-70
2023/02/17 12:37:21;;;;;;;31.40;23.95;;;14.10;99.80;;;;;;5021972;28;20208;-71
2023/02/17 12:39:51;;;;;;;29.30;23.75;;;14.00;99.90;;;;;;5021816;28;20239;-70
2023/02/17 12:42:25;;;;;;;27.42;21.80;;;14.00;99.80;;;;;;5008486;28;20251;-70
2023/02/17 12:44:56;;;;;;;26.65;21.88;;;14.20;99.90;;;;;;5008647;28;20270;-70
2023/02/17 12:47:29;;;;;;;26.02;20.88;;;14.30;99.80;;;;;;5011440;28;20203;-70
2023/02/17 12:50:02;;;;;;;26.25;21.17;;;14.60;99.20;;;;;;5007033;28;20244;-70
2023/02/17 12:52:33;;;;;;;32.40;24.10;;;14.90;99.00;;;;;;5005293;28;20302;-70
2023/02/17 12:55:04;;;;;;;32.45;24.02;;;15.30;98.30;;;;;;5003201;28;20212;-71